createdAt,value
2019-03-10T00:01:28.532Z,14.40
2019-03-10T00:04:00.306Z,12.23
2019-03-10T00:06:30.820Z,10.28
2019-03-10T00:09:01.158Z,13.95
2019-03-10T00:11:33.136Z,15.32
2019-03-10T00:14:03.553Z,11.33
2019-03-10T00:16:33.910Z,13.10
2019-03-10T00:19:04.368Z,13.18
2019-03-10T00:21:34.724Z,16.67
2019-03-10T00:24:05.061Z,15.32
2019-03-10T00:26:35.433Z,11.35
2019-03-10T00:29:05.766Z,15.50
2019-03-10T00:31:36.125Z,13.43
2019-03-10T00:34:06.456Z,14.90
2019-03-10T00:36:36.814Z,17.40
2019-03-10T00:39:11.818Z,13.95
2019-03-10T00:41:46.947Z,14.73
2019-03-10T00:44:50.384Z,13.60
2019-03-10T00:48:17.806Z,15.35
2019-03-10T00:51:11.804Z,12.88
2019-03-10T00:53:42.153Z,15.25
2019-03-10T00:56:12.502Z,9.63
2019-03-10T00:58:42.861Z,10.48
2019-03-10T01:01:13.223Z,11.43
2019-03-10T01:03:43.585Z,12.60
2019-03-10T01:06:14.015Z,11.43
2019-03-10T01:08:44.435Z,8.20
2019-03-10T01:11:14.923Z,16.60
2019-03-10T01:13:45.391Z,11.20
2019-03-10T01:16:16.702Z,13.28
2019-03-10T01:18:48.090Z,9.48
2019-03-10T01:21:19.660Z,14.78
2019-03-10T01:23:50.002Z,14.28
2019-03-10T01:26:20.358Z,8.93
2019-03-10T01:28:50.716Z,12.98
2019-03-10T01:31:31.103Z,11.40
2019-03-10T01:34:41.709Z,8.45
2019-03-10T01:37:12.169Z,14.05
2019-03-10T01:39:42.539Z,16.82
2019-03-10T01:42:12.919Z,12.25
2019-03-10T01:44:43.260Z,10.75
2019-03-10T01:47:13.601Z,13.25
2019-03-10T01:49:44.012Z,14.25
2019-03-10T01:52:14.340Z,11.65
2019-03-10T01:54:44.727Z,11.75
2019-03-10T01:57:15.075Z,6.83
2019-03-10T01:59:45.437Z,12.50
2019-03-10T02:02:24.791Z,9.45
2019-03-10T02:04:47.893Z,9.98
2019-03-10T02:07:18.230Z,10.98
2019-03-10T02:09:48.609Z,6.05
2019-03-10T02:12:18.974Z,10.10
2019-03-10T02:14:49.341Z,10.10
2019-03-10T02:17:19.704Z,11.53
2019-03-10T02:19:50.630Z,10.72
2019-03-10T02:22:20.970Z,8.05
2019-03-10T02:24:51.326Z,9.20
2019-03-10T02:27:21.654Z,9.58
2019-03-10T02:29:52.058Z,14.95
2019-03-10T02:32:22.663Z,11.43
2019-03-10T02:34:53.008Z,14.55
2019-03-10T02:37:23.343Z,9.00
2019-03-10T02:39:53.721Z,11.95
2019-03-10T02:42:24.050Z,13.28
2019-03-10T02:44:54.422Z,15.43
2019-03-10T02:47:24.768Z,12.73
2019-03-10T02:49:55.159Z,15.08
2019-03-10T02:52:25.490Z,12.30
2019-03-10T02:54:56.030Z,13.50
2019-03-10T02:57:26.371Z,17.35
2019-03-10T02:59:56.736Z,13.78
2019-03-10T03:02:27.080Z,10.95
2019-03-10T03:04:57.507Z,14.20
2019-03-10T03:07:27.852Z,15.58
2019-03-10T03:09:58.234Z,14.60
2019-03-10T03:12:28.577Z,13.22
2019-03-10T03:14:58.928Z,10.85
2019-03-10T03:17:29.552Z,12.05
2019-03-10T03:19:59.897Z,14.20
2019-03-10T03:22:30.263Z,12.05
2019-03-10T03:25:00.730Z,10.68
2019-03-10T03:27:31.045Z,13.05
2019-03-10T03:30:01.482Z,11.22
2019-03-10T03:32:33.026Z,8.98
2019-03-10T03:35:03.742Z,12.58
2019-03-10T03:37:34.041Z,11.65
2019-03-10T03:40:08.119Z,13.08
2019-03-10T03:42:38.458Z,8.33
2019-03-10T03:45:10.434Z,24.15
2019-03-10T03:47:40.846Z,15.32
2019-03-10T03:50:11.194Z,11.20
2019-03-10T03:52:41.543Z,10.30
2019-03-10T03:55:11.951Z,14.43
2019-03-10T03:57:42.378Z,14.58
2019-03-10T04:00:13.778Z,12.23
2019-03-10T04:02:44.092Z,9.68
2019-03-10T04:05:14.673Z,13.48
2019-03-10T04:07:45.016Z,10.78
2019-03-10T04:10:15.387Z,12.23
2019-03-10T04:12:45.728Z,16.35
2019-03-10T04:15:16.085Z,15.65
2019-03-10T04:17:46.463Z,10.53
2019-03-10T04:20:16.800Z,15.35
2019-03-10T04:22:47.146Z,13.75
2019-03-10T04:25:34.634Z,16.30
2019-03-10T04:28:03.823Z,11.95
2019-03-10T04:30:34.186Z,15.55
2019-03-10T04:33:04.523Z,15.23
2019-03-10T04:35:34.879Z,15.65
2019-03-10T04:38:05.220Z,23.07
2019-03-10T04:40:35.578Z,15.28
2019-03-10T04:43:05.920Z,15.15
2019-03-10T04:45:36.280Z,14.53
2019-03-10T04:48:07.592Z,18.70
2019-03-10T04:50:37.964Z,16.02
2019-03-10T04:53:08.311Z,20.45
2019-03-10T04:55:46.018Z,17.20
2019-03-10T04:58:16.833Z,19.85
2019-03-10T05:00:49.024Z,16.45
2019-03-10T05:03:54.148Z,21.33
2019-03-10T05:06:51.708Z,14.15
2019-03-10T05:09:11.052Z,17.92
2019-03-10T05:11:41.508Z,20.40
2019-03-10T05:14:11.873Z,15.65
2019-03-10T05:16:42.326Z,16.07
2019-03-10T05:19:12.674Z,13.85
2019-03-10T05:21:43.129Z,11.50
2019-03-10T05:24:14.452Z,16.17
2019-03-10T05:26:44.802Z,15.75
2019-03-10T05:29:15.178Z,18.15
2019-03-10T05:31:45.535Z,16.55
2019-03-10T05:34:15.909Z,15.72
2019-03-10T05:36:46.259Z,14.93
2019-03-10T05:39:16.643Z,16.00
2019-03-10T05:41:46.954Z,14.78
2019-03-10T05:44:17.294Z,12.88
2019-03-10T05:46:47.657Z,18.65
2019-03-10T05:49:18.061Z,11.78
2019-03-10T05:51:49.388Z,15.72
2019-03-10T05:54:19.739Z,15.35
2019-03-10T05:56:50.105Z,18.12
2019-03-10T05:59:20.463Z,20.95
2019-03-10T06:01:50.823Z,11.85
2019-03-10T06:04:21.178Z,18.50
2019-03-10T06:06:51.550Z,13.15
2019-03-10T06:09:21.914Z,16.12
2019-03-10T06:11:52.289Z,14.90
2019-03-10T06:14:22.618Z,15.43
2019-03-10T06:16:52.974Z,14.58
2019-03-10T06:19:23.313Z,16.82
2019-03-10T06:21:53.717Z,15.70
2019-03-10T06:24:24.066Z,17.73
2019-03-10T06:26:54.413Z,12.65
2019-03-10T06:29:24.773Z,15.28
2019-03-10T06:31:55.156Z,12.55
2019-03-10T06:34:25.522Z,12.95
2019-03-10T06:36:55.845Z,12.75
2019-03-10T06:39:27.154Z,15.83
2019-03-10T06:41:57.509Z,13.35
2019-03-10T06:44:27.864Z,16.20
2019-03-10T06:46:58.207Z,11.22
2019-03-10T06:49:28.557Z,20.85
2019-03-10T06:51:58.906Z,11.68
2019-03-10T06:54:29.246Z,9.95
2019-03-10T06:57:00.591Z,11.22
2019-03-10T06:59:30.935Z,12.98
2019-03-10T07:02:01.325Z,14.15
2019-03-10T07:04:31.656Z,11.28
2019-03-10T07:07:02.099Z,13.65
2019-03-10T07:09:32.480Z,11.25
2019-03-10T07:12:02.846Z,10.75
2019-03-10T07:14:33.186Z,13.00
2019-03-10T07:17:04.534Z,11.22
2019-03-10T07:19:34.873Z,11.97
2019-03-10T07:22:05.233Z,14.58
2019-03-10T07:24:36.561Z,13.08
2019-03-10T07:27:06.919Z,10.00
2019-03-10T07:29:44.680Z,14.40
2019-03-10T07:32:22.609Z,14.78
2019-03-10T07:34:54.603Z,11.53
2019-03-10T07:37:32.374Z,8.13
2019-03-10T07:40:19.691Z,10.15
2019-03-10T07:43:00.739Z,10.30
2019-03-10T07:45:35.674Z,10.15
2019-03-10T07:48:13.703Z,7.97
2019-03-10T07:50:48.368Z,10.10
2019-03-10T07:53:38.360Z,11.83
2019-03-10T07:56:11.542Z,9.25
2019-03-10T07:59:08.957Z,10.50
2019-03-10T08:01:56.033Z,12.13
2019-03-10T08:04:27.973Z,13.72
2019-03-10T08:07:02.597Z,8.85
2019-03-10T08:09:34.600Z,7.62
2019-03-10T08:12:09.537Z,5.25
2019-03-10T08:14:47.575Z,7.70
2019-03-10T08:17:19.568Z,8.28
2019-03-10T08:20:07.496Z,8.10
2019-03-10T08:22:39.483Z,6.28
2019-03-10T08:25:11.466Z,8.80
2019-03-10T08:27:43.470Z,4.12
2019-03-10T08:30:31.426Z,6.90
2019-03-10T08:33:03.443Z,6.20
2019-03-10T08:35:43.237Z,5.45
2019-03-10T08:38:26.952Z,5.35
2019-03-10T08:41:01.121Z,6.03
2019-03-10T08:43:33.159Z,5.83
2019-03-10T08:46:08.088Z,7.08
2019-03-10T08:48:40.071Z,4.12
2019-03-10T08:51:18.953Z,4.65
2019-03-10T08:53:53.844Z,5.22
2019-03-10T08:56:27.017Z,3.15
2019-03-10T08:59:01.695Z,3.98
2019-03-10T09:01:33.683Z,4.70
2019-03-10T09:04:08.110Z,3.35
2019-03-10T09:06:40.163Z,1.82
2019-03-10T09:09:21.786Z,4.00
2019-03-10T09:11:58.330Z,3.22
2019-03-10T09:14:39.389Z,2.65
2019-03-10T09:17:23.432Z,3.85
2019-03-10T09:19:55.414Z,2.80
2019-03-10T09:22:35.969Z,3.87
2019-03-10T09:25:08.844Z,3.12
2019-03-10T09:27:58.684Z,3.58
2019-03-10T09:30:42.354Z,2.27
2019-03-10T09:33:30.165Z,3.42
2019-03-10T09:36:04.888Z,3.42
2019-03-10T09:38:42.568Z,1.22
2019-03-10T09:41:21.058Z,6.10
2019-03-10T09:43:59.093Z,2.25
2019-03-10T09:46:37.011Z,3.52
2019-03-10T09:49:18.177Z,1.85
2019-03-10T09:51:50.229Z,2.02
2019-03-10T09:54:22.201Z,2.02
2019-03-10T09:57:10.327Z,1.67
2019-03-10T09:59:42.309Z,2.65
2019-03-10T10:02:26.103Z,3.17
2019-03-10T10:05:06.799Z,2.05
2019-03-10T10:07:54.963Z,5.55
2019-03-10T10:10:41.460Z,2.40
2019-03-10T10:13:22.445Z,2.33
2019-03-10T10:15:56.935Z,7.92
2019-03-10T10:18:34.592Z,4.45
2019-03-10T10:21:09.640Z,3.12
2019-03-10T10:23:57.203Z,3.55
2019-03-10T10:26:31.643Z,3.52
2019-03-10T10:29:10.566Z,3.85
2019-03-10T10:31:42.550Z,3.85
2019-03-10T10:34:26.641Z,4.03
2019-03-10T10:37:01.755Z,4.17
2019-03-10T10:39:39.703Z,2.30
2019-03-10T10:42:17.625Z,3.75
2019-03-10T10:45:02.789Z,3.80
2019-03-10T10:47:50.732Z,3.40
2019-03-10T10:50:29.453Z,2.52
2019-03-10T10:53:05.591Z,3.45
2019-03-10T10:55:37.682Z,2.52
2019-03-10T10:58:23.127Z,2.83
2019-03-10T11:01:01.074Z,5.03
2019-03-10T11:03:33.820Z,4.78
2019-03-10T11:06:11.613Z,4.03
2019-03-10T11:08:55.397Z,4.95
2019-03-10T11:11:43.082Z,4.67
2019-03-10T11:14:15.097Z,6.78
2019-03-10T11:17:02.841Z,5.97
2019-03-10T11:19:34.830Z,8.23
2019-03-10T11:22:06.835Z,10.50
2019-03-10T11:24:44.534Z,10.58
2019-03-10T11:27:31.442Z,10.50
2019-03-10T11:30:11.863Z,14.38
2019-03-10T11:32:52.900Z,8.65
2019-03-10T11:35:42.779Z,12.88
2019-03-10T11:38:23.843Z,21.87
2019-03-10T11:40:55.887Z,32.10
2019-03-10T11:43:27.881Z,34.70
2019-03-10T11:46:27.203Z,37.93
2019-03-10T11:49:01.743Z,83.70
2019-03-10T11:51:33.716Z,74.03
2019-03-10T11:54:14.340Z,77.27
2019-03-10T11:56:55.571Z,72.65
2019-03-10T11:59:30.246Z,80.38
2019-03-10T12:02:15.985Z,67.08
2019-03-10T12:04:41.954Z,60.12
2019-03-10T12:07:13.922Z,45.38
2019-03-10T12:09:44.260Z,52.35
2019-03-10T12:12:14.925Z,40.67
2019-03-10T12:14:45.274Z,46.85
2019-03-10T12:17:15.963Z,36.65
2019-03-10T12:19:47.922Z,40.08
2019-03-10T12:22:18.260Z,29.02
2019-03-10T12:24:48.615Z,27.05
2019-03-10T12:27:19.306Z,29.07
2019-03-10T12:29:49.704Z,33.90
2019-03-10T12:32:20.108Z,26.60
2019-03-10T12:34:50.441Z,36.53
2019-03-10T12:37:20.782Z,32.45
2019-03-10T12:39:51.131Z,26.23
2019-03-10T12:42:21.510Z,17.62
2019-03-10T12:44:53.464Z,22.27
2019-03-10T12:47:23.754Z,17.05
2019-03-10T12:49:54.097Z,15.13
2019-03-10T12:52:24.442Z,20.08
2019-03-10T12:54:55.750Z,23.10
2019-03-10T12:57:26.101Z,26.80
2019-03-10T12:59:57.929Z,23.00
2019-03-10T13:02:28.217Z,13.28
2019-03-10T13:04:58.552Z,18.77
2019-03-10T13:07:28.877Z,13.58
2019-03-10T13:09:59.242Z,15.35
2019-03-10T13:12:31.619Z,14.18
2019-03-10T13:15:02.001Z,18.02
2019-03-10T13:17:32.702Z,19.62
2019-03-10T13:20:03.644Z,15.83
2019-03-10T13:22:33.991Z,21.20
2019-03-10T13:25:13.303Z,20.62
2019-03-10T13:27:47.775Z,20.72
2019-03-10T13:30:18.558Z,15.63
2019-03-10T13:32:50.423Z,16.73
2019-03-10T13:35:20.755Z,14.15
2019-03-10T13:37:51.095Z,14.98
2019-03-10T13:40:22.435Z,11.95
2019-03-10T13:42:57.283Z,15.75
2019-03-10T13:45:27.632Z,17.62
2019-03-10T13:47:58.159Z,12.13
2019-03-10T13:50:29.772Z,5.15
2019-03-10T13:53:00.262Z,5.90
2019-03-10T13:55:30.590Z,2.75
2019-03-10T13:58:01.118Z,1.20
2019-03-10T14:00:31.659Z,1.60
2019-03-10T14:03:02.088Z,1.02
2019-03-10T14:05:32.437Z,0.62
2019-03-10T14:08:02.795Z,0.30
2019-03-10T14:10:33.150Z,0.72
2019-03-10T14:13:03.531Z,0.30
2019-03-10T14:15:36.492Z,0.30
2019-03-10T14:18:06.916Z,0.20
2019-03-10T14:20:40.429Z,0.40
2019-03-10T14:23:10.779Z,0.25
2019-03-10T14:25:41.146Z,0.42
2019-03-10T14:28:11.744Z,0.30
2019-03-10T14:30:42.121Z,0.40
2019-03-10T14:33:12.618Z,0.30
2019-03-10T14:35:43.064Z,0.30
2019-03-10T14:38:14.946Z,2.98
2019-03-10T14:40:45.377Z,0.85
2019-03-10T14:43:15.752Z,0.90
2019-03-10T14:45:46.142Z,1.05
2019-03-10T14:48:18.146Z,0.57
2019-03-10T14:50:50.099Z,1.07
2019-03-10T14:53:20.450Z,0.82
2019-03-10T14:55:50.925Z,2.12
2019-03-10T14:58:21.278Z,1.40
2019-03-10T15:00:53.284Z,1.10
2019-03-10T15:03:23.691Z,1.30
2019-03-10T15:05:54.117Z,3.08
2019-03-10T15:08:24.513Z,1.72
2019-03-10T15:10:54.991Z,2.40
2019-03-10T15:13:25.708Z,3.17
2019-03-10T15:15:59.663Z,2.55
2019-03-10T15:18:43.742Z,1.60
2019-03-10T15:21:17.200Z,2.17
2019-03-10T15:23:47.518Z,3.25
2019-03-10T15:26:17.869Z,2.25
2019-03-10T15:28:50.380Z,2.60
2019-03-10T15:31:20.518Z,4.70
2019-03-10T15:33:50.851Z,4.90
2019-03-10T15:36:21.204Z,3.42
2019-03-10T15:38:51.548Z,1.82
2019-03-10T15:41:24.852Z,2.30
2019-03-10T15:43:55.186Z,3.90
2019-03-10T15:46:25.593Z,2.58
2019-03-10T15:48:55.906Z,3.58
2019-03-10T15:51:27.813Z,6.37
2019-03-10T15:53:58.168Z,1.52
2019-03-10T15:56:30.441Z,2.58
2019-03-10T15:59:18.444Z,5.58
2019-03-10T16:01:48.644Z,4.25
2019-03-10T16:04:23.063Z,3.95
2019-03-10T16:07:13.652Z,1.70
2019-03-10T16:09:44.037Z,2.60
2019-03-10T16:12:14.414Z,3.37
2019-03-10T16:14:44.783Z,2.22
2019-03-10T16:17:15.168Z,1.65
2019-03-10T16:19:45.512Z,2.08
2019-03-10T16:22:15.912Z,2.15
2019-03-10T16:24:46.279Z,0.80
2019-03-10T16:27:16.651Z,1.37
2019-03-10T16:29:46.991Z,1.22
2019-03-10T16:32:17.365Z,1.70
2019-03-10T16:34:47.694Z,1.42
2019-03-10T16:37:18.040Z,1.15
2019-03-10T16:39:48.388Z,1.42
2019-03-10T16:42:18.714Z,2.37
2019-03-10T16:44:49.072Z,1.52
2019-03-10T16:47:19.408Z,3.87
2019-03-10T16:49:49.780Z,2.80
2019-03-10T16:52:20.102Z,1.60
2019-03-10T16:54:50.435Z,5.72
2019-03-10T16:57:20.760Z,1.77
2019-03-10T16:59:51.160Z,3.10
2019-03-10T17:02:21.521Z,4.55
2019-03-10T17:04:51.853Z,4.10
2019-03-10T17:07:22.197Z,3.72
2019-03-10T17:09:52.522Z,2.47
2019-03-10T17:12:22.864Z,0.95
2019-03-10T17:14:53.232Z,1.95
2019-03-10T17:17:23.568Z,0.57
2019-03-10T17:19:53.954Z,0.28
2019-03-10T17:22:24.296Z,0.60
2019-03-10T17:24:54.661Z,1.12
2019-03-10T17:27:25.051Z,0.25
2019-03-10T17:29:55.404Z,0.30
2019-03-10T17:32:25.732Z,0.70
2019-03-10T17:34:56.098Z,0.93
2019-03-10T17:37:26.421Z,4.45
2019-03-10T17:39:58.793Z,2.08
2019-03-10T17:42:28.796Z,1.70
2019-03-10T17:44:59.159Z,2.08
2019-03-10T17:47:29.503Z,4.20
2019-03-10T17:49:59.846Z,2.40
2019-03-10T17:52:30.199Z,3.02
2019-03-10T17:55:00.555Z,7.33
2019-03-10T17:57:30.943Z,4.78
2019-03-10T18:00:01.290Z,5.53
2019-03-10T18:02:32.792Z,5.95
2019-03-10T18:05:03.300Z,5.53
2019-03-10T18:07:33.628Z,3.55
2019-03-10T18:10:13.469Z,4.97
2019-03-10T18:12:43.959Z,7.30
2019-03-10T18:15:16.815Z,4.90
2019-03-10T18:17:47.223Z,9.98
2019-03-10T18:20:25.030Z,3.83
2019-03-10T18:22:55.358Z,6.55
2019-03-10T18:25:25.705Z,21.70
2019-03-10T18:27:56.064Z,16.48
2019-03-10T18:30:27.545Z,16.15
2019-03-10T18:32:58.021Z,23.87
2019-03-10T18:35:28.309Z,37.42
2019-03-10T18:37:58.643Z,40.25
2019-03-10T18:40:29.506Z,14.03
2019-03-10T18:42:59.880Z,20.00
2019-03-10T18:45:30.307Z,13.43
2019-03-10T18:48:00.642Z,11.40
2019-03-10T18:50:30.988Z,9.93
2019-03-10T18:53:01.311Z,4.70
2019-03-10T18:55:31.670Z,6.55
2019-03-10T18:58:03.795Z,4.60
2019-03-10T19:00:34.165Z,7.05
2019-03-10T19:03:04.559Z,5.08
2019-03-10T19:05:34.898Z,2.27
2019-03-10T19:08:09.708Z,2.33
2019-03-10T19:10:40.175Z,2.65
2019-03-10T19:13:10.526Z,1.77
2019-03-10T19:15:43.507Z,1.37
2019-03-10T19:18:13.859Z,1.35
2019-03-10T19:20:44.185Z,2.80
2019-03-10T19:23:15.485Z,3.90
2019-03-10T19:25:45.847Z,6.90
2019-03-10T19:28:16.186Z,4.75
2019-03-10T19:30:46.520Z,1.98
2019-03-10T19:33:16.843Z,7.78
2019-03-10T19:35:47.181Z,5.33
2019-03-10T19:38:17.519Z,8.13
2019-03-10T19:40:47.844Z,4.90
2019-03-10T19:43:18.173Z,7.30
2019-03-10T19:45:48.510Z,5.30
2019-03-10T19:48:18.860Z,8.20
2019-03-10T19:50:49.202Z,14.20
2019-03-10T19:53:19.538Z,9.93
2019-03-10T19:55:49.859Z,9.98
2019-03-10T19:58:20.183Z,13.43
2019-03-10T20:00:50.525Z,15.15
2019-03-10T20:03:20.903Z,14.10
2019-03-10T20:05:51.255Z,9.45
2019-03-10T20:08:21.606Z,10.70
2019-03-10T20:11:13.923Z,14.35
2019-03-10T20:13:44.286Z,12.40
2019-03-10T20:16:14.646Z,11.88
2019-03-10T20:18:45.087Z,7.28
2019-03-10T20:21:15.424Z,12.13
2019-03-10T20:23:51.498Z,7.60
2019-03-10T20:26:21.839Z,14.18
2019-03-10T20:28:52.273Z,10.98
2019-03-10T20:31:22.617Z,16.32
2019-03-10T20:33:52.975Z,10.90
2019-03-10T20:36:23.315Z,12.30
2019-03-10T20:38:53.633Z,16.30
2019-03-10T20:41:24.218Z,14.98
2019-03-10T20:43:54.645Z,13.13
2019-03-10T20:46:25.001Z,14.90
2019-03-10T20:48:55.331Z,14.10
2019-03-10T20:51:25.669Z,12.63
2019-03-10T20:53:56.247Z,14.63
2019-03-10T20:56:26.753Z,20.82
2019-03-10T20:58:57.089Z,20.10
2019-03-10T21:01:27.437Z,14.87
2019-03-10T21:03:57.823Z,13.55
2019-03-10T21:06:28.191Z,13.85
2019-03-10T21:09:00.070Z,15.95
2019-03-10T21:11:30.416Z,28.83
2019-03-10T21:14:00.752Z,17.12
2019-03-10T21:16:31.095Z,16.62
2019-03-10T21:19:03.019Z,14.00
2019-03-10T21:21:33.358Z,14.00
2019-03-10T21:24:03.954Z,14.35
2019-03-10T21:26:38.870Z,15.98
2019-03-10T21:29:09.285Z,15.28
2019-03-10T21:31:39.893Z,17.90
2019-03-10T21:34:10.341Z,14.68
2019-03-10T21:36:40.892Z,15.65
2019-03-10T21:39:17.087Z,15.98
2019-03-10T21:41:49.692Z,16.25
2019-03-10T21:44:26.515Z,10.28
2019-03-10T21:46:53.803Z,15.85
2019-03-10T21:49:28.713Z,13.93
2019-03-10T21:52:01.989Z,9.85
2019-03-10T21:54:32.346Z,7.50
2019-03-10T21:57:02.703Z,9.98
2019-03-10T21:59:37.478Z,12.82
2019-03-10T22:02:13.762Z,8.48
2019-03-10T22:04:48.257Z,11.08
2019-03-10T22:07:20.244Z,11.68
2019-03-10T22:09:53.516Z,15.45
2019-03-10T22:12:26.321Z,9.78
2019-03-10T22:14:59.297Z,10.18
2019-03-10T22:17:34.234Z,11.38
2019-03-10T22:20:15.956Z,6.50
2019-03-10T22:22:49.187Z,8.48
2019-03-10T22:25:19.675Z,9.93
2019-03-10T22:27:50.044Z,11.03
2019-03-10T22:30:26.673Z,13.43
2019-03-10T22:32:57.032Z,10.23
2019-03-10T22:35:48.248Z,8.25
2019-03-10T22:38:21.900Z,17.57
2019-03-10T22:40:52.248Z,8.10
2019-03-10T22:43:25.517Z,7.45
2019-03-10T22:45:55.941Z,7.75
2019-03-10T22:48:29.644Z,8.78
2019-03-10T22:51:08.660Z,9.33
2019-03-10T22:53:38.967Z,7.62
2019-03-10T22:56:09.424Z,8.10
2019-03-10T22:58:39.794Z,7.87
2019-03-10T23:01:10.710Z,15.90
2019-03-10T23:03:41.212Z,12.60
2019-03-10T23:06:13.375Z,5.17
2019-03-10T23:08:43.752Z,8.40
2019-03-10T23:11:14.483Z,8.43
2019-03-10T23:13:45.253Z,11.25
2019-03-10T23:16:15.639Z,5.30
2019-03-10T23:18:46.121Z,4.83
2019-03-10T23:21:19.588Z,9.03
2019-03-10T23:23:51.091Z,6.03
2019-03-10T23:26:21.615Z,5.65
2019-03-10T23:28:54.696Z,6.75
2019-03-10T23:31:25.135Z,10.85
2019-03-10T23:33:56.500Z,5.70
2019-03-10T23:36:26.886Z,10.95
2019-03-10T23:38:58.039Z,10.18
2019-03-10T23:41:28.417Z,9.08
2019-03-10T23:43:58.785Z,8.40
2019-03-10T23:46:29.148Z,11.57
2019-03-10T23:48:59.516Z,11.33
2019-03-10T23:51:29.867Z,10.00
2019-03-10T23:54:00.237Z,10.98
2019-03-10T23:56:30.603Z,8.15
2019-03-10T23:59:01.052Z,9.68
